sensor_id;sensor_type;location;lat;lon;timestamp;temperature;humidity
10722;DHT22;5412;59.450;18.124;2023-03-14T00:01:23;6.50;99.90
10722;DHT22;5412;59.450;18.124;2023-03-14T00:03:51;6.50;99.90
10722;DHT22;5412;59.450;18.124;2023-03-14T00:06:17;6.60;99.90
10722;DHT22;5412;59.450;18.124;2023-03-14T00:08:44;6.50;99.90
10722;DHT22;5412;59.450;18.124;2023-03-14T00:11:13;6.50;99.90
10722;DHT22;5412;59.450;18.124;2023-03-14T00:13:40;6.60;99.90
10722;DHT22;5412;59.450;18.124;2023-03-14T00:16:08;6.60;99.90
10722;DHT22;5412;59.450;18.124;2023-03-14T00:18:34;6.70;99.90
10722;DHT22;5412;59.450;18.124;2023-03-14T00:21:01;6.60;99.90
10722;DHT22;5412;59.450;18.124;2023-03-14T00:23:29;6.70;99.90
10722;DHT22;5412;59.450;18.124;2023-03-14T00:26:00;6.70;99.90
10722;DHT22;5412;59.450;18.124;2023-03-14T00:28:26;6.60;99.90
10722;DHT22;5412;59.450;18.124;2023-03-14T00:30:52;6.70;99.90
10722;DHT22;5412;59.450;18.124;2023-03-14T00:33:18;6.60;99.90
10722;DHT22;5412;59.450;18.124;2023-03-14T00:35:51;6.60;99.90
10722;DHT22;5412;59.450;18.124;2023-03-14T00:38:17;6.60;99.90
10722;DHT22;5412;59.450;18.124;2023-03-14T00:40:42;6.50;99.90
10722;DHT22;5412;59.450;18.124;2023-03-14T00:43:08;6.50;99.90
10722;DHT22;5412;59.450;18.124;2023-03-14T00:45:34;6.60;99.90
10722;DHT22;5412;59.450;18.124;2023-03-14T00:48:00;6.50;99.90
10722;DHT22;5412;59.450;18.124;2023-03-14T00:50:26;6.50;99.90
10722;DHT22;5412;59.450;18.124;2023-03-14T00:52:51;6.50;99.90
10722;DHT22;5412;59.450;18.124;2023-03-14T00:55:17;6.50;99.90
10722;DHT22;5412;59.450;18.124;2023-03-14T00:57:43;6.60;99.90
10722;DHT22;5412;59.450;18.124;2023-03-14T01:00:09;6.50;99.90
10722;DHT22;5412;59.450;18.124;2023-03-14T01:02:37;6.60;99.90
10722;DHT22;5412;59.450;18.124;2023-03-14T01:05:03;6.60;99.90
10722;DHT22;5412;59.450;18.124;2023-03-14T01:07:29;6.60;99.90
10722;DHT22;5412;59.450;18.124;2023-03-14T01:09:55;6.60;99.90
10722;DHT22;5412;59.450;18.124;2023-03-14T01:12:21;6.50;99.90
10722;DHT22;5412;59.450;18.124;2023-03-14T01:14:47;6.60;99.90
10722;DHT22;5412;59.450;18.124;2023-03-14T01:17:26;6.60;99.90
10722;DHT22;5412;59.450;18.124;2023-03-14T01:19:52;6.60;99.90
10722;DHT22;5412;59.450;18.124;2023-03-14T01:22:18;6.70;99.90
10722;DHT22;5412;59.450;18.124;2023-03-14T01:24:44;6.70;99.90
10722;DHT22;5412;59.450;18.124;2023-03-14T01:27:09;6.70;99.90
10722;DHT22;5412;59.450;18.124;2023-03-14T01:29:35;6.70;99.90
10722;DHT22;5412;59.450;18.124;2023-03-14T01:32:01;6.70;99.90
10722;DHT22;5412;59.450;18.124;2023-03-14T01:34:26;6.70;99.90
10722;DHT22;5412;59.450;18.124;2023-03-14T01:36:52;6.70;99.90
10722;DHT22;5412;59.450;18.124;2023-03-14T01:39:18;6.70;99.90
10722;DHT22;5412;59.450;18.124;2023-03-14T01:41:44;6.70;99.90
10722;DHT22;5412;59.450;18.124;2023-03-14T01:44:10;6.80;99.90
10722;DHT22;5412;59.450;18.124;2023-03-14T01:46:40;6.80;99.90
10722;DHT22;5412;59.450;18.124;2023-03-14T01:49:29;6.90;99.90
10722;DHT22;5412;59.450;18.124;2023-03-14T01:52:10;6.80;99.90
10722;DHT22;5412;59.450;18.124;2023-03-14T01:54:43;6.90;99.90
10722;DHT22;5412;59.450;18.124;2023-03-14T01:57:17;6.80;99.90
10722;DHT22;5412;59.450;18.124;2023-03-14T02:00:06;6.80;99.90
10722;DHT22;5412;59.450;18.124;2023-03-14T02:02:45;6.90;99.90
10722;DHT22;5412;59.450;18.124;2023-03-14T02:05:14;6.90;99.90
10722;DHT22;5412;59.450;18.124;2023-03-14T02:07:58;6.90;99.90
10722;DHT22;5412;59.450;18.124;2023-03-14T02:10:35;7.00;99.90
10722;DHT22;5412;59.450;18.124;2023-03-14T02:13:03;7.00;99.90
10722;DHT22;5412;59.450;18.124;2023-03-14T02:15:29;7.00;99.90
10722;DHT22;5412;59.450;18.124;2023-03-14T02:17:57;7.00;99.90
10722;DHT22;5412;59.450;18.124;2023-03-14T02:20:48;7.00;99.90
10722;DHT22;5412;59.450;18.124;2023-03-14T02:23:31;7.10;99.90
10722;DHT22;5412;59.450;18.124;2023-03-14T02:26:08;7.00;99.90
10722;DHT22;5412;59.450;18.124;2023-03-14T02:28:36;7.10;99.90
10722;DHT22;5412;59.450;18.124;2023-03-14T02:31:02;7.00;99.90
10722;DHT22;5412;59.450;18.124;2023-03-14T02:33:28;7.10;99.90
10722;DHT22;5412;59.450;18.124;2023-03-14T02:36:07;7.00;99.90
10722;DHT22;5412;59.450;18.124;2023-03-14T02:41:18;7.10;99.90
10722;DHT22;5412;59.450;18.124;2023-03-14T02:43:44;7.10;99.90
10722;DHT22;5412;59.450;18.124;2023-03-14T02:46:14;7.10;99.90
10722;DHT22;5412;59.450;18.124;2023-03-14T02:48:49;7.00;99.90
10722;DHT22;5412;59.450;18.124;2023-03-14T02:51:16;7.10;99.90
10722;DHT22;5412;59.450;18.124;2023-03-14T02:53:41;7.10;99.90
10722;DHT22;5412;59.450;18.124;2023-03-14T02:56:08;7.00;99.90
10722;DHT22;5412;59.450;18.124;2023-03-14T02:58:34;7.00;99.90
10722;DHT22;5412;59.450;18.124;2023-03-14T03:01:00;6.90;99.90
10722;DHT22;5412;59.450;18.124;2023-03-14T03:03:26;7.00;99.90
10722;DHT22;5412;59.450;18.124;2023-03-14T03:05:53;7.00;99.90
10722;DHT22;5412;59.450;18.124;2023-03-14T03:08:22;6.90;99.90
10722;DHT22;5412;59.450;18.124;2023-03-14T03:10:49;6.90;99.90
10722;DHT22;5412;59.450;18.124;2023-03-14T03:13:15;6.90;99.90
10722;DHT22;5412;59.450;18.124;2023-03-14T03:15:41;6.90;99.90
10722;DHT22;5412;59.450;18.124;2023-03-14T03:18:07;6.90;99.90
10722;DHT22;5412;59.450;18.124;2023-03-14T03:20:33;6.90;99.90
10722;DHT22;5412;59.450;18.124;2023-03-14T03:22:59;6.90;99.90
10722;DHT22;5412;59.450;18.124;2023-03-14T03:25:25;6.90;99.90
10722;DHT22;5412;59.450;18.124;2023-03-14T03:27:51;6.90;99.90
10722;DHT22;5412;59.450;18.124;2023-03-14T03:30:18;6.90;99.90
10722;DHT22;5412;59.450;18.124;2023-03-14T03:32:43;6.90;99.90
10722;DHT22;5412;59.450;18.124;2023-03-14T03:35:09;7.00;99.90
10722;DHT22;5412;59.450;18.124;2023-03-14T03:37:35;7.00;99.90
10722;DHT22;5412;59.450;18.124;2023-03-14T03:40:01;6.90;99.90
10722;DHT22;5412;59.450;18.124;2023-03-14T03:42:30;6.90;99.90
10722;DHT22;5412;59.450;18.124;2023-03-14T03:44:55;6.90;99.90
10722;DHT22;5412;59.450;18.124;2023-03-14T03:47:21;7.00;99.90
10722;DHT22;5412;59.450;18.124;2023-03-14T03:49:47;7.00;99.90
10722;DHT22;5412;59.450;18.124;2023-03-14T03:52:13;6.90;99.90
10722;DHT22;5412;59.450;18.124;2023-03-14T03:54:38;6.90;99.90
10722;DHT22;5412;59.450;18.124;2023-03-14T03:57:04;6.90;99.90
10722;DHT22;5412;59.450;18.124;2023-03-14T03:59:30;6.90;99.90
10722;DHT22;5412;59.450;18.124;2023-03-14T04:01:56;7.00;99.90
10722;DHT22;5412;59.450;18.124;2023-03-14T04:04:21;7.00;99.90
10722;DHT22;5412;59.450;18.124;2023-03-14T04:06:47;6.90;99.90
10722;DHT22;5412;59.450;18.124;2023-03-14T04:09:13;6.90;99.90
10722;DHT22;5412;59.450;18.124;2023-03-14T04:11:39;6.90;99.90
10722;DHT22;5412;59.450;18.124;2023-03-14T04:14:05;7.00;99.90
10722;DHT22;5412;59.450;18.124;2023-03-14T04:16:31;7.00;99.90
10722;DHT22;5412;59.450;18.124;2023-03-14T04:19:00;6.90;99.90
10722;DHT22;5412;59.450;18.124;2023-03-14T04:21:26;6.90;99.90
10722;DHT22;5412;59.450;18.124;2023-03-14T04:23:51;6.90;99.90
10722;DHT22;5412;59.450;18.124;2023-03-14T04:26:17;6.90;99.90
10722;DHT22;5412;59.450;18.124;2023-03-14T04:28:43;6.90;99.90
10722;DHT22;5412;59.450;18.124;2023-03-14T04:31:17;6.90;99.90
10722;DHT22;5412;59.450;18.124;2023-03-14T04:33:44;6.90;99.90
10722;DHT22;5412;59.450;18.124;2023-03-14T04:36:10;6.90;99.90
10722;DHT22;5412;59.450;18.124;2023-03-14T04:38:36;6.90;99.90
10722;DHT22;5412;59.450;18.124;2023-03-14T04:41:02;6.90;99.90
10722;DHT22;5412;59.450;18.124;2023-03-14T04:43:28;6.90;99.90
10722;DHT22;5412;59.450;18.124;2023-03-14T04:45:56;6.90;99.90
10722;DHT22;5412;59.450;18.124;2023-03-14T04:48:23;6.80;99.90
10722;DHT22;5412;59.450;18.124;2023-03-14T04:50:49;6.90;99.90
10722;DHT22;5412;59.450;18.124;2023-03-14T04:53:16;6.90;99.90
10722;DHT22;5412;59.450;18.124;2023-03-14T04:55:47;6.90;99.90
10722;DHT22;5412;59.450;18.124;2023-03-14T04:58:13;6.90;99.90
10722;DHT22;5412;59.450;18.124;2023-03-14T05:00:38;6.90;99.90
10722;DHT22;5412;59.450;18.124;2023-03-14T05:03:04;7.00;99.90
10722;DHT22;5412;59.450;18.124;2023-03-14T05:05:30;6.90;99.90
10722;DHT22;5412;59.450;18.124;2023-03-14T05:07:55;6.80;99.90
10722;DHT22;5412;59.450;18.124;2023-03-14T05:10:21;6.90;99.90
10722;DHT22;5412;59.450;18.124;2023-03-14T05:12:47;6.90;99.90
10722;DHT22;5412;59.450;18.124;2023-03-14T05:15:13;5.70;99.90
10722;DHT22;5412;59.450;18.124;2023-03-14T05:17:38;6.90;99.90
10722;DHT22;5412;59.450;18.124;2023-03-14T05:20:04;6.90;99.90
10722;DHT22;5412;59.450;18.124;2023-03-14T05:22:48;6.80;99.90
10722;DHT22;5412;59.450;18.124;2023-03-14T05:25:14;6.80;99.90
10722;DHT22;5412;59.450;18.124;2023-03-14T05:27:40;6.80;99.90
10722;DHT22;5412;59.450;18.124;2023-03-14T05:30:06;6.80;99.90
10722;DHT22;5412;59.450;18.124;2023-03-14T05:32:32;6.70;99.90
10722;DHT22;5412;59.450;18.124;2023-03-14T05:34:58;6.80;99.90
10722;DHT22;5412;59.450;18.124;2023-03-14T05:37:27;6.80;99.90
10722;DHT22;5412;59.450;18.124;2023-03-14T05:39:53;6.70;99.90
10722;DHT22;5412;59.450;18.124;2023-03-14T05:42:19;6.70;99.90
10722;DHT22;5412;59.450;18.124;2023-03-14T05:44:45;6.70;99.90
10722;DHT22;5412;59.450;18.124;2023-03-14T05:47:11;6.70;99.90
10722;DHT22;5412;59.450;18.124;2023-03-14T05:49:37;6.70;99.90
10722;DHT22;5412;59.450;18.124;2023-03-14T05:52:03;6.60;99.90
10722;DHT22;5412;59.450;18.124;2023-03-14T05:54:29;6.60;99.90
10722;DHT22;5412;59.450;18.124;2023-03-14T05:56:54;6.60;99.90
10722;DHT22;5412;59.450;18.124;2023-03-14T05:59:20;6.60;99.90
10722;DHT22;5412;59.450;18.124;2023-03-14T06:01:46;6.50;99.90
10722;DHT22;5412;59.450;18.124;2023-03-14T06:04:11;6.60;99.90
10722;DHT22;5412;59.450;18.124;2023-03-14T06:06:38;6.70;99.90
10722;DHT22;5412;59.450;18.124;2023-03-14T06:09:04;6.60;99.90
10722;DHT22;5412;59.450;18.124;2023-03-14T06:11:30;6.60;99.90
10722;DHT22;5412;59.450;18.124;2023-03-14T06:13:55;6.50;99.90
10722;DHT22;5412;59.450;18.124;2023-03-14T06:16:21;6.50;99.90
10722;DHT22;5412;59.450;18.124;2023-03-14T06:18:47;6.50;99.90
10722;DHT22;5412;59.450;18.124;2023-03-14T06:21:15;6.60;99.90
10722;DHT22;5412;59.450;18.124;2023-03-14T06:23:40;6.60;99.90
10722;DHT22;5412;59.450;18.124;2023-03-14T06:26:06;6.60;99.90
10722;DHT22;5412;59.450;18.124;2023-03-14T06:28:32;6.60;99.90
10722;DHT22;5412;59.450;18.124;2023-03-14T06:30:59;6.60;99.90
10722;DHT22;5412;59.450;18.124;2023-03-14T06:33:25;6.50;99.90
10722;DHT22;5412;59.450;18.124;2023-03-14T06:35:51;6.50;99.90
10722;DHT22;5412;59.450;18.124;2023-03-14T06:38:17;6.50;99.90
10722;DHT22;5412;59.450;18.124;2023-03-14T06:40:42;6.40;99.90
10722;DHT22;5412;59.450;18.124;2023-03-14T06:43:08;6.50;99.90
10722;DHT22;5412;59.450;18.124;2023-03-14T06:45:34;6.50;99.90
10722;DHT22;5412;59.450;18.124;2023-03-14T06:48:00;6.60;99.90
10722;DHT22;5412;59.450;18.124;2023-03-14T06:50:25;6.50;99.90
10722;DHT22;5412;59.450;18.124;2023-03-14T06:52:51;6.40;99.90
10722;DHT22;5412;59.450;18.124;2023-03-14T06:55:17;6.50;99.90
10722;DHT22;5412;59.450;18.124;2023-03-14T06:57:43;6.40;99.90
10722;DHT22;5412;59.450;18.124;2023-03-14T07:00:10;6.40;99.90
10722;DHT22;5412;59.450;18.124;2023-03-14T07:02:36;6.40;99.90
10722;DHT22;5412;59.450;18.124;2023-03-14T07:05:02;6.40;99.90
10722;DHT22;5412;59.450;18.124;2023-03-14T07:07:28;6.30;99.90
10722;DHT22;5412;59.450;18.124;2023-03-14T07:09:54;6.30;99.90
10722;DHT22;5412;59.450;18.124;2023-03-14T07:12:20;6.30;99.90
10722;DHT22;5412;59.450;18.124;2023-03-14T07:14:45;6.30;99.90
10722;DHT22;5412;59.450;18.124;2023-03-14T07:17:11;6.30;99.90
10722;DHT22;5412;59.450;18.124;2023-03-14T07:19:37;6.40;99.90
10722;DHT22;5412;59.450;18.124;2023-03-14T07:22:04;6.50;99.90
10722;DHT22;5412;59.450;18.124;2023-03-14T07:24:30;6.50;99.90
10722;DHT22;5412;59.450;18.124;2023-03-14T07:26:55;6.50;99.90
10722;DHT22;5412;59.450;18.124;2023-03-14T07:29:21;6.60;99.90
10722;DHT22;5412;59.450;18.124;2023-03-14T07:31:47;6.70;99.90
10722;DHT22;5412;59.450;18.124;2023-03-14T07:34:13;6.60;99.90
10722;DHT22;5412;59.450;18.124;2023-03-14T07:36:39;6.80;99.90
10722;DHT22;5412;59.450;18.124;2023-03-14T07:39:04;6.90;99.90
10722;DHT22;5412;59.450;18.124;2023-03-14T07:41:31;6.80;99.90
10722;DHT22;5412;59.450;18.124;2023-03-14T07:43:57;6.70;99.90
10722;DHT22;5412;59.450;18.124;2023-03-14T07:46:23;6.70;99.90
10722;DHT22;5412;59.450;18.124;2023-03-14T07:48:48;6.60;99.90
10722;DHT22;5412;59.450;18.124;2023-03-14T07:51:14;6.50;99.90
10722;DHT22;5412;59.450;18.124;2023-03-14T07:53:40;6.60;99.90
10722;DHT22;5412;59.450;18.124;2023-03-14T07:56:06;6.50;99.90
10722;DHT22;5412;59.450;18.124;2023-03-14T07:58:32;6.40;99.90
10722;DHT22;5412;59.450;18.124;2023-03-14T08:00:59;6.20;99.90
10722;DHT22;5412;59.450;18.124;2023-03-14T08:03:25;6.10;99.90
10722;DHT22;5412;59.450;18.124;2023-03-14T08:05:51;5.90;99.90
10722;DHT22;5412;59.450;18.124;2023-03-14T08:08:17;5.90;99.90
10722;DHT22;5412;59.450;18.124;2023-03-14T08:10:43;5.80;99.90
10722;DHT22;5412;59.450;18.124;2023-03-14T08:13:09;5.80;99.90
10722;DHT22;5412;59.450;18.124;2023-03-14T08:15:35;5.70;99.90
10722;DHT22;5412;59.450;18.124;2023-03-14T08:18:02;5.70;99.90
10722;DHT22;5412;59.450;18.124;2023-03-14T08:20:29;5.70;99.90
10722;DHT22;5412;59.450;18.124;2023-03-14T08:22:59;5.70;99.90
10722;DHT22;5412;59.450;18.124;2023-03-14T08:25:26;5.80;99.90
10722;DHT22;5412;59.450;18.124;2023-03-14T08:27:52;5.70;99.90
10722;DHT22;5412;59.450;18.124;2023-03-14T08:30:19;5.70;99.90
10722;DHT22;5412;59.450;18.124;2023-03-14T08:32:45;5.80;99.90
10722;DHT22;5412;59.450;18.124;2023-03-14T08:35:12;6.00;99.90
10722;DHT22;5412;59.450;18.124;2023-03-14T08:37:37;5.90;99.90
10722;DHT22;5412;59.450;18.124;2023-03-14T08:40:04;6.00;99.90
10722;DHT22;5412;59.450;18.124;2023-03-14T08:42:36;6.00;99.90
10722;DHT22;5412;59.450;18.124;2023-03-14T08:45:02;6.10;99.90
10722;DHT22;5412;59.450;18.124;2023-03-14T08:47:28;6.20;99.90
10722;DHT22;5412;59.450;18.124;2023-03-14T08:49:54;7.00;99.90
10722;DHT22;5412;59.450;18.124;2023-03-14T08:52:20;6.60;99.90
10722;DHT22;5412;59.450;18.124;2023-03-14T08:54:46;6.70;99.90
10722;DHT22;5412;59.450;18.124;2023-03-14T08:57:12;6.70;99.90
10722;DHT22;5412;59.450;18.124;2023-03-14T08:59:37;6.90;99.90
10722;DHT22;5412;59.450;18.124;2023-03-14T09:02:03;7.10;99.90
10722;DHT22;5412;59.450;18.124;2023-03-14T09:04:32;7.30;99.90
10722;DHT22;5412;59.450;18.124;2023-03-14T09:06:59;7.30;99.90
10722;DHT22;5412;59.450;18.124;2023-03-14T09:09:26;7.20;99.90
10722;DHT22;5412;59.450;18.124;2023-03-14T09:11:56;6.90;99.90
10722;DHT22;5412;59.450;18.124;2023-03-14T09:14:22;7.00;99.90
10722;DHT22;5412;59.450;18.124;2023-03-14T09:16:48;7.00;99.90
10722;DHT22;5412;59.450;18.124;2023-03-14T09:19:14;7.00;99.90
10722;DHT22;5412;59.450;18.124;2023-03-14T09:21:39;7.10;99.90
10722;DHT22;5412;59.450;18.124;2023-03-14T09:24:05;7.00;99.90
10722;DHT22;5412;59.450;18.124;2023-03-14T09:26:31;6.70;99.90
10722;DHT22;5412;59.450;18.124;2023-03-14T09:28:57;6.80;99.90
10722;DHT22;5412;59.450;18.124;2023-03-14T09:31:23;6.90;99.90
10722;DHT22;5412;59.450;18.124;2023-03-14T09:33:48;6.80;99.90
10722;DHT22;5412;59.450;18.124;2023-03-14T09:36:14;6.50;99.90
10722;DHT22;5412;59.450;18.124;2023-03-14T09:38:40;6.30;99.90
10722;DHT22;5412;59.450;18.124;2023-03-14T09:43:41;6.20;99.90
10722;DHT22;5412;59.450;18.124;2023-03-14T09:46:09;6.40;99.90
10722;DHT22;5412;59.450;18.124;2023-03-14T09:48:36;6.40;99.90
10722;DHT22;5412;59.450;18.124;2023-03-14T09:51:10;6.40;99.90
10722;DHT22;5412;59.450;18.124;2023-03-14T09:53:41;6.50;99.90
10722;DHT22;5412;59.450;18.124;2023-03-14T09:56:21;6.70;99.90
10722;DHT22;5412;59.450;18.124;2023-03-14T09:58:59;6.80;99.90
10722;DHT22;5412;59.450;18.124;2023-03-14T10:01:31;6.70;99.90
10722;DHT22;5412;59.450;18.124;2023-03-14T10:04:02;6.60;99.90
10722;DHT22;5412;59.450;18.124;2023-03-14T10:06:30;6.70;99.90
10722;DHT22;5412;59.450;18.124;2023-03-14T10:08:57;7.10;99.90
10722;DHT22;5412;59.450;18.124;2023-03-14T10:11:24;7.30;99.90
10722;DHT22;5412;59.450;18.124;2023-03-14T10:14:10;7.20;99.90
10722;DHT22;5412;59.450;18.124;2023-03-14T10:16:43;6.90;99.90
10722;DHT22;5412;59.450;18.124;2023-03-14T10:19:16;6.90;99.90
10722;DHT22;5412;59.450;18.124;2023-03-14T10:21:44;6.80;99.90
10722;DHT22;5412;59.450;18.124;2023-03-14T10:24:26;6.80;99.90
10722;DHT22;5412;59.450;18.124;2023-03-14T10:26:54;6.90;99.90
10722;DHT22;5412;59.450;18.124;2023-03-14T10:29:21;7.00;99.90
10722;DHT22;5412;59.450;18.124;2023-03-14T10:34:32;7.10;99.90
10722;DHT22;5412;59.450;18.124;2023-03-14T10:40:00;7.10;99.90
10722;DHT22;5412;59.450;18.124;2023-03-14T10:42:33;7.00;99.90
10722;DHT22;5412;59.450;18.124;2023-03-14T10:45:36;7.20;99.90
10722;DHT22;5412;59.450;18.124;2023-03-14T10:48:20;7.10;99.90
10722;DHT22;5412;59.450;18.124;2023-03-14T10:50:55;7.10;99.90
10722;DHT22;5412;59.450;18.124;2023-03-14T10:53:22;7.10;99.90
10722;DHT22;5412;59.450;18.124;2023-03-14T10:55:48;7.20;99.90
10722;DHT22;5412;59.450;18.124;2023-03-14T10:58:23;7.20;99.90
10722;DHT22;5412;59.450;18.124;2023-03-14T11:09:56;7.20;99.90
10722;DHT22;5412;59.450;18.124;2023-03-14T11:15:25;7.50;99.90
10722;DHT22;5412;59.450;18.124;2023-03-14T11:21:01;7.20;99.90
10722;DHT22;5412;59.450;18.124;2023-03-14T11:31:44;7.20;99.90
10722;DHT22;5412;59.450;18.124;2023-03-14T11:34:17;7.20;99.90
10722;DHT22;5412;59.450;18.124;2023-03-14T11:36:51;7.10;99.90
10722;DHT22;5412;59.450;18.124;2023-03-14T11:39:20;7.20;99.90
10722;DHT22;5412;59.450;18.124;2023-03-14T11:41:53;7.10;99.90
10722;DHT22;5412;59.450;18.124;2023-03-14T11:44:26;7.10;99.90
10722;DHT22;5412;59.450;18.124;2023-03-14T11:52:03;7.40;99.90
10722;DHT22;5412;59.450;18.124;2023-03-14T11:54:39;7.40;99.90
10722;DHT22;5412;59.450;18.124;2023-03-14T11:57:17;7.30;99.90
10722;DHT22;5412;59.450;18.124;2023-03-14T12:02:47;7.30;99.90
10722;DHT22;5412;59.450;18.124;2023-03-14T12:13:02;7.10;99.90
10722;DHT22;5412;59.450;18.124;2023-03-14T12:15:28;6.90;99.90
10722;DHT22;5412;59.450;18.124;2023-03-14T12:17:55;6.80;99.90
10722;DHT22;5412;59.450;18.124;2023-03-14T12:20:23;6.80;99.90
10722;DHT22;5412;59.450;18.124;2023-03-14T12:23:04;6.90;99.90
10722;DHT22;5412;59.450;18.124;2023-03-14T12:25:32;7.00;99.90
10722;DHT22;5412;59.450;18.124;2023-03-14T12:28:19;6.90;99.90
10722;DHT22;5412;59.450;18.124;2023-03-14T12:30:45;6.90;99.90
10722;DHT22;5412;59.450;18.124;2023-03-14T12:33:19;6.90;99.90
10722;DHT22;5412;59.450;18.124;2023-03-14T12:35:51;6.80;99.90
10722;DHT22;5412;59.450;18.124;2023-03-14T12:41:34;6.80;99.90
10722;DHT22;5412;59.450;18.124;2023-03-14T12:43:35;6.80;99.90
10722;DHT22;5412;59.450;18.124;2023-03-14T12:49:04;7.00;99.90
10722;DHT22;5412;59.450;18.124;2023-03-14T12:51:42;7.20;99.90
10722;DHT22;5412;59.450;18.124;2023-03-14T12:54:39;7.20;99.90
10722;DHT22;5412;59.450;18.124;2023-03-14T12:57:34;7.20;99.90
10722;DHT22;5412;59.450;18.124;2023-03-14T13:00:35;7.00;99.90
10722;DHT22;5412;59.450;18.124;2023-03-14T13:03:20;7.10;99.90
10722;DHT22;5412;59.450;18.124;2023-03-14T13:05:57;7.20;99.90
10722;DHT22;5412;59.450;18.124;2023-03-14T13:08:39;7.30;99.90
10722;DHT22;5412;59.450;18.124;2023-03-14T13:13:40;7.00;99.90
10722;DHT22;5412;59.450;18.124;2023-03-14T13:16:14;7.00;99.90
10722;DHT22;5412;59.450;18.124;2023-03-14T13:18:43;6.90;99.90
10722;DHT22;5412;59.450;18.124;2023-03-14T13:21:17;6.80;99.90
10722;DHT22;5412;59.450;18.124;2023-03-14T13:24:01;6.70;99.90
10722;DHT22;5412;59.450;18.124;2023-03-14T13:26:43;6.70;99.90
10722;DHT22;5412;59.450;18.124;2023-03-14T13:29:32;6.50;99.90
10722;DHT22;5412;59.450;18.124;2023-03-14T13:32:19;6.30;99.90
10722;DHT22;5412;59.450;18.124;2023-03-14T13:34:46;6.30;99.90
10722;DHT22;5412;59.450;18.124;2023-03-14T13:37:20;6.30;99.90
10722;DHT22;5412;59.450;18.124;2023-03-14T13:39:52;6.30;99.90
10722;DHT22;5412;59.450;18.124;2023-03-14T13:42:18;6.30;99.90
10722;DHT22;5412;59.450;18.124;2023-03-14T13:44:45;6.30;99.90
10722;DHT22;5412;59.450;18.124;2023-03-14T13:47:15;6.50;99.90
10722;DHT22;5412;59.450;18.124;2023-03-14T13:49:42;6.30;99.90
10722;DHT22;5412;59.450;18.124;2023-03-14T13:54:54;6.30;99.90
10722;DHT22;5412;59.450;18.124;2023-03-14T13:57:20;6.40;99.90
10722;DHT22;5412;59.450;18.124;2023-03-14T14:00:04;6.40;99.90
10722;DHT22;5412;59.450;18.124;2023-03-14T14:02:38;6.50;99.90
10722;DHT22;5412;59.450;18.124;2023-03-14T14:05:04;6.40;99.90
10722;DHT22;5412;59.450;18.124;2023-03-14T14:07:31;6.40;99.90
10722;DHT22;5412;59.450;18.124;2023-03-14T14:09:59;6.40;99.90
10722;DHT22;5412;59.450;18.124;2023-03-14T14:12:30;6.40;99.90
10722;DHT22;5412;59.450;18.124;2023-03-14T14:18:01;6.40;99.90
10722;DHT22;5412;59.450;18.124;2023-03-14T14:20:40;6.40;99.90
10722;DHT22;5412;59.450;18.124;2023-03-14T14:23:15;6.20;99.90
10722;DHT22;5412;59.450;18.124;2023-03-14T14:25:45;6.10;99.90
10722;DHT22;5412;59.450;18.124;2023-03-14T14:31:21;5.80;99.90
10722;DHT22;5412;59.450;18.124;2023-03-14T14:34:02;5.80;99.90
10722;DHT22;5412;59.450;18.124;2023-03-14T14:36:42;5.60;99.90
10722;DHT22;5412;59.450;18.124;2023-03-14T14:39:19;5.50;99.90
10722;DHT22;5412;59.450;18.124;2023-03-14T14:41:49;5.50;99.90
10722;DHT22;5412;59.450;18.124;2023-03-14T14:44:21;5.40;99.90
10722;DHT22;5412;59.450;18.124;2023-03-14T14:46:55;5.40;99.90
10722;DHT22;5412;59.450;18.124;2023-03-14T14:49:21;5.40;99.90
10722;DHT22;5412;59.450;18.124;2023-03-14T14:51:50;5.40;99.90
10722;DHT22;5412;59.450;18.124;2023-03-14T14:54:19;5.40;99.90
10722;DHT22;5412;59.450;18.124;2023-03-14T14:56:51;5.40;99.90
10722;DHT22;5412;59.450;18.124;2023-03-14T14:59:27;5.30;99.90
10722;DHT22;5412;59.450;18.124;2023-03-14T15:02:01;5.30;99.90
10722;DHT22;5412;59.450;18.124;2023-03-14T15:04:31;5.20;99.90
10722;DHT22;5412;59.450;18.124;2023-03-14T15:06:57;5.20;99.90
10722;DHT22;5412;59.450;18.124;2023-03-14T15:09:23;5.30;99.90
10722;DHT22;5412;59.450;18.124;2023-03-14T15:11:49;5.20;99.90
10722;DHT22;5412;59.450;18.124;2023-03-14T15:14:15;5.20;99.90
10722;DHT22;5412;59.450;18.124;2023-03-14T15:16:41;5.10;99.90
10722;DHT22;5412;59.450;18.124;2023-03-14T15:19:22;5.00;99.90
10722;DHT22;5412;59.450;18.124;2023-03-14T15:21:50;5.10;99.90
10722;DHT22;5412;59.450;18.124;2023-03-14T15:24:16;5.00;99.90
10722;DHT22;5412;59.450;18.124;2023-03-14T15:26:41;5.10;99.90
10722;DHT22;5412;59.450;18.124;2023-03-14T15:29:10;5.10;99.90
10722;DHT22;5412;59.450;18.124;2023-03-14T15:31:38;5.10;99.90
10722;DHT22;5412;59.450;18.124;2023-03-14T15:34:04;5.20;99.90
10722;DHT22;5412;59.450;18.124;2023-03-14T15:36:32;5.10;99.90
10722;DHT22;5412;59.450;18.124;2023-03-14T15:38:59;5.10;99.90
10722;DHT22;5412;59.450;18.124;2023-03-14T15:41:26;5.20;99.90
10722;DHT22;5412;59.450;18.124;2023-03-14T15:43:52;5.10;99.90
10722;DHT22;5412;59.450;18.124;2023-03-14T15:46:18;5.10;99.90
10722;DHT22;5412;59.450;18.124;2023-03-14T15:48:47;5.20;99.90
10722;DHT22;5412;59.450;18.124;2023-03-14T15:51:14;5.10;99.90
10722;DHT22;5412;59.450;18.124;2023-03-14T15:53:40;5.10;99.90
10722;DHT22;5412;59.450;18.124;2023-03-14T15:56:07;5.10;99.90
10722;DHT22;5412;59.450;18.124;2023-03-14T15:58:36;4.90;99.90
10722;DHT22;5412;59.450;18.124;2023-03-14T16:01:06;4.90;99.90
10722;DHT22;5412;59.450;18.124;2023-03-14T16:03:34;4.70;99.90
10722;DHT22;5412;59.450;18.124;2023-03-14T16:06:00;4.60;99.90
10722;DHT22;5412;59.450;18.124;2023-03-14T16:08:28;4.60;99.90
10722;DHT22;5412;59.450;18.124;2023-03-14T16:11:00;4.60;99.90
10722;DHT22;5412;59.450;18.124;2023-03-14T16:13:26;4.60;99.90
10722;DHT22;5412;59.450;18.124;2023-03-14T16:15:58;4.50;99.90
10722;DHT22;5412;59.450;18.124;2023-03-14T16:18:24;4.50;99.90
10722;DHT22;5412;59.450;18.124;2023-03-14T16:20:57;4.50;99.90
10722;DHT22;5412;59.450;18.124;2023-03-14T16:23:24;4.50;99.90
10722;DHT22;5412;59.450;18.124;2023-03-14T16:25:50;4.50;99.90
10722;DHT22;5412;59.450;18.124;2023-03-14T16:28:16;4.50;99.90
10722;DHT22;5412;59.450;18.124;2023-03-14T16:30:42;4.40;99.90
10722;DHT22;5412;59.450;18.124;2023-03-14T16:33:08;4.40;99.90
10722;DHT22;5412;59.450;18.124;2023-03-14T16:35:38;4.30;99.90
10722;DHT22;5412;59.450;18.124;2023-03-14T16:38:04;4.30;99.90
10722;DHT22;5412;59.450;18.124;2023-03-14T16:40:31;4.20;99.90
10722;DHT22;5412;59.450;18.124;2023-03-14T16:42:56;4.10;99.90
10722;DHT22;5412;59.450;18.124;2023-03-14T16:45:22;4.00;99.90
10722;DHT22;5412;59.450;18.124;2023-03-14T16:47:48;4.10;99.90
10722;DHT22;5412;59.450;18.124;2023-03-14T16:50:14;3.90;99.90
10722;DHT22;5412;59.450;18.124;2023-03-14T16:52:40;3.90;99.90
10722;DHT22;5412;59.450;18.124;2023-03-14T16:55:06;3.80;99.90
10722;DHT22;5412;59.450;18.124;2023-03-14T16:57:32;3.90;99.90
10722;DHT22;5412;59.450;18.124;2023-03-14T16:59:58;3.90;99.90
10722;DHT22;5412;59.450;18.124;2023-03-14T17:02:24;3.80;99.90